Time;durP1;ratioP1;P1;durP2;ratioP2;P2;SDS_P1;SDS_P2;PMS_P1;PMS_P2;Temp;Humidity;BMP_temperature;BMP_pressure;BME280_temperature;BME280_humidity;BME280_pressure;Samples;Min_cycle;Max_cycle;Signal;HPM_P1;HPM_P2
2023/04/11 00:01:35;;;;;;;19.40;10.70;;;;;;;-141.97;78.39;47532.53;5051944;28;20161;-84
2023/04/11 00:04:00;;;;;;;18.37;10.53;;;;;;;-141.97;78.61;47655.53;5052078;28;20162;-85
2023/04/11 00:06:26;;;;;;;18.43;10.23;;;;;;;-141.97;78.39;47728.59;5058828;28;20252;-84
2023/04/11 00:08:52;;;;;;;17.63;8.60;;;;;;;-141.97;78.22;47592.13;5051983;28;20185;-85
2023/04/11 00:11:17;;;;;;;17.07;8.23;;;;;;;-141.97;77.70;47630.56;5051131;28;20173;-83
2023/04/11 00:13:44;;;;;;;18.73;10.10;;;;;;;-141.97;77.27;47676.69;5051867;28;20166;-85
2023/04/11 00:16:09;;;;;;;19.97;10.37;;;;;;;-141.97;77.36;47799.72;5049990;28;20537;-84
2023/04/11 00:18:38;;;;;;;21.43;10.57;;;;;;;-141.97;77.73;47730.50;5049973;28;20165;-84
2023/04/11 00:21:04;;;;;;;16.97;9.00;;;;;;;-141.97;77.35;47630.56;5050025;28;20208;-84
2023/04/11 00:23:29;;;;;;;17.97;10.50;;;;;;;-141.97;77.24;47672.84;5049672;28;20303;-85
2023/04/11 00:25:55;;;;;;;18.37;10.60;;;;;;;-141.97;76.24;47511.38;5050685;28;20572;-85
2023/04/11 00:28:20;;;;;;;19.37;10.87;;;;;;;-141.97;75.81;47705.53;5055207;28;20182;-85
2023/04/11 00:30:45;;;;;;;17.83;9.23;;;;;;;-141.97;76.12;47555.59;5056976;28;20165;-84
2023/04/11 00:33:11;;;;;;;17.57;9.23;;;;;;;-141.97;76.26;47595.97;5060170;28;20595;-84
2023/04/11 00:35:38;;;;;;;21.67;11.17;;;;;;;-141.97;76.05;47680.53;5060089;28;20160;-86
2023/04/11 00:38:04;;;;;;;18.70;11.00;;;;;;;-141.97;76.26;47686.31;5055727;28;20224;-84
2023/04/11 00:40:30;;;;;;;18.70;10.50;;;;;;;-141.97;75.94;47690.16;5054192;28;20206;-84
2023/04/11 00:42:55;;;;;;;17.77;8.57;;;;;;;-141.97;76.01;47680.53;5055172;28;20154;-83
2023/04/11 00:45:21;;;;;;;16.93;9.27;;;;;;;-141.97;75.55;47667.06;5055252;28;20610;-85
2023/04/11 00:47:46;;;;;;;14.93;7.30;;;;;;;-141.97;75.20;47599.81;5054989;28;20199;-84
2023/04/11 00:50:12;;;;;;;15.63;9.37;;;;;;;-141.97;75.74;47745.88;5074394;28;20644;-85
2023/04/11 00:52:38;;;;;;;17.23;9.87;;;;;;;-141.97;75.42;47590.19;5073846;28;20177;-85
2023/04/11 00:55:06;;;;;;;16.17;9.00;;;;;;;-141.97;75.80;47724.75;5073485;28;20633;-85
2023/04/11 00:57:32;;;;;;;16.37;9.07;;;;;;;-141.97;76.13;47661.31;5074835;28;20161;-84
2023/04/11 00:59:59;;;;;;;14.93;8.50;;;;;;;-141.97;76.25;47665.16;5074726;28;20189;-85
2023/04/11 01:02:25;;;;;;;15.23;9.00;;;;;;;-141.97;75.98;47592.13;5075953;28;20172;-85
2023/04/11 01:04:51;;;;;;;16.53;9.50;;;;;;;-141.97;75.82;47678.63;5091568;28;20153;-85
2023/04/11 01:07:19;;;;;;;15.57;9.57;;;;;;;-141.97;75.79;47747.81;5075557;28;20267;-85
2023/04/11 01:09:45;;;;;;;21.50;9.87;;;;;;;-141.97;76.04;47538.28;5073997;28;20541;-84
2023/04/11 01:12:13;;;;;;;18.23;9.63;;;;;;;-141.97;75.38;47544.06;5073785;28;20167;-84
2023/04/11 01:14:39;;;;;;;19.47;10.10;;;;;;;-141.97;75.46;47603.66;5074960;28;20184;-84
2023/04/11 01:17:06;;;;;;;17.60;10.30;;;;;;;-141.97;75.10;47659.38;5074210;28;20169;-85
2023/04/11 01:19:32;;;;;;;15.50;8.97;;;;;;;-141.97;74.57;47557.53;5074298;28;20168;-86
2023/04/11 01:22:00;;;;;;;17.60;9.73;;;;;;;-141.97;74.69;47665.16;5078822;28;20173;-85
2023/04/11 01:24:26;;;;;;;16.57;9.70;;;;;;;-141.97;74.03;47768.94;5075621;28;20555;-84
2023/04/11 01:26:52;;;;;;;16.43;9.37;;;;;;;-141.97;74.49;47767.03;5074787;28;20168;-84
2023/04/11 01:29:17;;;;;;;17.03;10.47;;;;;;;-141.97;74.53;47576.75;5074383;28;20196;-84
2023/04/11 01:31:43;;;;;;;17.43;10.03;;;;;;;-141.97;74.40;47667.06;5073849;28;20611;-84
2023/04/11 01:34:12;;;;;;;16.83;9.57;;;;;;;-141.97;73.98;47530.59;5074319;28;20172;-85
2023/04/11 01:36:39;;;;;;;18.03;10.33;;;;;;;-141.97;74.69;47718.97;5071924;28;20224;-85
2023/04/11 01:39:05;;;;;;;18.43;10.20;;;;;;;-141.97;75.13;47790.09;5072470;28;20486;-85
2023/04/11 01:41:32;;;;;;;20.50;9.77;;;;;;;-141.97;74.80;47538.28;5073982;28;20167;-85
2023/04/11 01:43:58;;;;;;;18.47;9.37;;;;;;;-141.97;74.63;47767.03;5073578;28;20169;-85
2023/04/11 01:46:24;;;;;;;18.83;10.80;;;;;;;-141.97;75.13;47715.13;5073339;28;20176;-85
2023/04/11 01:48:49;;;;;;;18.00;10.50;;;;;;;-141.97;75.03;47588.28;5073694;28;20189;-84
2023/04/11 01:51:15;;;;;;;19.33;11.40;;;;;;;-141.97;74.94;47705.53;5073846;28;20172;-85
2023/04/11 01:53:40;;;;;;;18.07;10.50;;;;;;;-141.97;74.82;47742.03;5073576;28;20248;-85
2023/04/11 01:56:06;;;;;;;22.13;11.10;;;;;;;-141.97;74.98;47634.41;5073562;28;20156;-85
2023/04/11 01:58:32;;;;;;;18.53;10.63;;;;;;;-141.97;75.15;47661.31;5072067;28;20172;-85
2023/04/11 02:00:57;;;;;;;20.10;11.03;;;;;;;-141.97;74.99;47703.59;5072978;28;20165;-84
2023/04/11 02:03:22;;;;;;;18.80;10.97;;;;;;;-141.97;74.92;47630.56;5072604;28;20153;-84
2023/04/11 02:05:48;;;;;;;17.87;10.53;;;;;;;-141.97;74.81;47634.41;5071310;28;20638;-85
2023/04/11 02:08:13;;;;;;;18.67;11.27;;;;;;;-141.97;75.18;47469.09;5072552;28;20185;-84
2023/04/11 02:10:38;;;;;;;17.30;9.23;;;;;;;-141.97;74.92;47547.91;5072778;28;20168;-83
2023/04/11 02:13:04;;;;;;;19.53;10.33;;;;;;;-141.97;75.06;47653.63;5071404;28;20168;-84
2023/04/11 02:15:29;;;;;;;18.83;10.50;;;;;;;-141.97;75.26;47517.16;5071493;28;20173;-84
2023/04/11 02:17:55;;;;;;;19.90;10.37;;;;;;;-141.97;75.01;47705.53;5072529;28;20157;-84
2023/04/11 02:20:22;;;;;;;17.90;9.60;;;;;;;-141.97;75.99;47684.38;5078694;28;20177;-82
2023/04/11 02:22:47;;;;;;;18.97;10.47;;;;;;;-141.97;76.02;47695.91;5081528;28;20179;-85
2023/04/11 02:25:13;;;;;;;18.93;10.50;;;;;;;-141.97;76.23;47649.78;5071718;28;20168;-85
2023/04/11 02:27:38;;;;;;;19.17;10.73;;;;;;;-141.97;76.42;47657.47;5072667;28;20172;-83
2023/04/11 02:30:07;;;;;;;20.10;10.57;;;;;;;-141.97;76.49;47619.03;5072915;28;20644;-83
2023/04/11 02:32:34;;;;;;;16.87;9.30;;;;;;;-141.97;75.85;47665.16;5072550;28;20240;-84
2023/04/11 02:34:59;;;;;;;16.67;8.77;;;;;;;-141.97;75.53;47680.53;5071066;28;20169;-84
2023/04/11 02:37:25;;;;;;;18.07;10.30;;;;;;;-141.97;75.53;47682.47;5072168;28;20318;-84
2023/04/11 02:39:50;;;;;;;17.73;10.50;;;;;;;-141.97;75.65;47680.53;5070764;28;20175;-85
2023/04/11 02:42:16;;;;;;;17.60;10.67;;;;;;;-141.97;75.47;47711.28;5072262;28;20313;-84
2023/04/11 02:44:41;;;;;;;16.10;9.43;;;;;;;-141.97;75.53;47669.00;5072015;28;20157;-85
2023/04/11 02:47:06;;;;;;;15.97;8.87;;;;;;;-141.97;76.06;47701.69;5070732;28;20161;-84
2023/04/11 02:49:32;;;;;;;19.00;11.13;;;;;;;-141.97;76.37;47676.69;5071038;28;20747;-84
2023/04/11 02:51:57;;;;;;;16.40;9.83;;;;;;;-141.97;76.41;47695.91;5071699;28;20592;-84
2023/04/11 02:54:23;;;;;;;16.77;9.20;;;;;;;-141.97;76.37;47595.97;5071756;28;20168;-84
2023/04/11 02:56:48;;;;;;;16.20;8.90;;;;;;;-141.97;76.04;47688.22;5071750;28;20164;-84
2023/04/11 02:59:13;;;;;;;17.17;8.10;;;;;;;-141.97;75.71;47697.84;5072202;28;20157;-83
2023/04/11 03:01:39;;;;;;;17.73;9.23;;;;;;;-141.97;75.65;47647.84;5070741;28;20237;-84
2023/04/11 03:04:06;;;;;;;18.47;9.23;;;;;;;-141.97;75.76;47718.97;5071796;28;20183;-85
2023/04/11 03:06:32;;;;;;;18.87;8.97;;;;;;;-141.97;76.05;47688.22;5070436;28;20168;-84
2023/04/11 03:08:57;;;;;;;19.63;9.80;;;;;;;-141.97;75.58;47663.22;5070852;28;20192;-85
2023/04/11 03:11:23;;;;;;;17.23;9.00;;;;;;;-141.97;75.49;47680.53;5072023;28;20561;-84
2023/04/11 03:13:48;;;;;;;17.03;9.37;;;;;;;-141.97;75.29;47682.47;5072406;28;20161;-84
2023/04/11 03:16:14;;;;;;;17.07;8.17;;;;;;;-141.97;75.07;47699.75;5072526;28;20161;-84
2023/04/11 03:18:39;;;;;;;19.27;10.53;;;;;;;-141.97;75.10;47730.50;5071904;28;20240;-84
2023/04/11 03:21:10;;;;;;;13.97;8.50;;;;;;;-141.97;74.25;47740.13;5071636;28;20178;-83
2023/04/11 03:23:37;;;;;;;17.27;9.63;;;;;;;-141.97;75.03;47803.56;5071654;28;20636;-84
2023/04/11 03:26:04;;;;;;;12.87;7.23;;;;;;;-141.97;74.72;47792.03;5071725;28;20187;-83
2023/04/11 03:28:29;;;;;;;20.43;9.13;;;;;;;-141.97;75.18;47647.84;5071695;28;20589;-84
2023/04/11 03:30:55;;;;;;;20.93;10.23;;;;;;;-141.97;75.44;47680.53;5071073;28;20171;-84
2023/04/11 03:33:20;;;;;;;16.80;8.93;;;;;;;-141.97;75.29;47688.22;5070855;28;20163;-85
2023/04/11 03:35:45;;;;;;;17.43;9.13;;;;;;;-141.97;75.36;47763.19;5072025;28;20591;-85
2023/04/11 03:38:11;;;;;;;17.10;9.10;;;;;;;-141.97;75.74;47694.00;5071432;28;20304;-83
2023/04/11 03:40:36;;;;;;;16.77;9.30;;;;;;;-141.97;75.22;47630.56;5070113;28;20175;-84
2023/04/11 03:43:02;;;;;;;14.93;7.87;;;;;;;-141.97;75.61;47678.63;5070707;28;20192;-83
2023/04/11 03:45:27;;;;;;;16.57;9.40;;;;;;;-141.97;75.52;47842.00;5070933;28;20211;-84
2023/04/11 03:47:53;;;;;;;16.13;8.53;;;;;;;-141.97;75.58;47688.22;5072142;28;20267;-83
2023/04/11 03:50:18;;;;;;;14.73;8.57;;;;;;;-141.97;75.59;47722.81;5091973;28;20206;-83
2023/04/11 03:52:43;;;;;;;17.50;9.07;;;;;;;-141.97;75.39;47707.44;5073410;28;20264;-84
2023/04/11 03:55:09;;;;;;;19.67;9.63;;;;;;;-141.97;75.75;47711.28;5069871;28;20172;-84
2023/04/11 03:57:35;;;;;;;19.07;10.60;;;;;;;-141.97;75.46;47817.00;5074787;28;20161;-85
2023/04/11 04:00:00;;;;;;;17.20;9.37;;;;;;;-141.97;75.73;47647.84;5092462;28;20161;-85
2023/04/11 04:02:26;;;;;;;14.87;8.37;;;;;;;-141.97;75.77;47684.38;5078247;28;20331;-84
2023/04/11 04:04:57;;;;;;;13.93;7.53;;;;;;;-141.97;75.22;47549.84;5076076;28;20203;-85
2023/04/11 04:07:23;;;;;;;11.63;6.80;;;;;;;-141.97;75.56;47657.47;5074544;28;20192;-84
2023/04/11 04:09:49;;;;;;;14.80;8.83;;;;;;;-141.97;75.06;47676.69;5075625;28;20620;-85
2023/04/11 04:12:16;;;;;;;14.33;8.40;;;;;;;-141.97;75.13;47619.03;5076480;28;20169;-83
2023/04/11 04:14:42;;;;;;;12.87;6.37;;;;;;;-141.97;75.17;47672.84;5091651;28;20309;-83
2023/04/11 04:17:08;;;;;;;15.33;7.00;;;;;;;-141.97;75.04;47734.34;5074798;28;20288;-84
2023/04/11 04:19:33;;;;;;;14.63;8.83;;;;;;;-141.97;74.60;47665.16;5073887;28;20195;-84
2023/04/11 04:21:59;;;;;;;15.97;8.83;;;;;;;-141.97;74.98;47734.34;5075096;28;20257;-84
2023/04/11 04:24:28;;;;;;;15.10;8.97;;;;;;;-141.97;74.58;47538.28;5073181;28;20184;-84
2023/04/11 04:26:56;;;;;;;15.73;8.33;;;;;;;-141.97;74.20;47653.63;5074773;28;20165;-84
2023/04/11 04:29:22;;;;;;;14.97;9.00;;;;;;;-141.97;73.86;47692.06;5069630;28;20590;-84
2023/04/11 04:31:51;;;;;;;14.60;8.47;;;;;;;-141.97;74.16;47688.22;5054916;28;20169;-83
2023/04/11 04:34:20;;;;;;;17.63;7.80;;;;;;;-141.97;74.52;47722.81;5053815;28;20178;-84
2023/04/11 04:36:48;;;;;;;16.27;8.83;;;;;;;-141.97;74.17;47615.19;5054726;28;20684;-84
2023/04/11 04:39:16;;;;;;;16.00;9.53;;;;;;;-141.97;74.52;47647.84;5053927;28;20176;-84
2023/04/11 04:41:57;;;;;;;20.30;8.77;;;;;;;-141.97;74.78;47682.47;5054924;28;20165;-85
2023/04/11 04:44:25;;;;;;;16.60;9.80;;;;;;;-141.97;74.50;47692.06;5055288;28;20161;-84
2023/04/11 04:46:54;;;;;;;16.27;9.03;;;;;;;-141.97;73.97;47680.53;5056100;28;20161;-84
2023/04/11 04:49:20;;;;;;;17.03;9.20;;;;;;;-141.97;73.77;47695.91;5055370;28;20281;-84
2023/04/11 04:51:46;;;;;;;18.37;10.93;;;;;;;-141.97;73.68;47709.38;5053814;28;20192;-84
2023/04/11 04:54:12;;;;;;;15.20;8.37;;;;;;;-141.97;73.59;47632.47;5052896;28;20184;-84
2023/04/11 04:56:37;;;;;;;21.03;10.93;;;;;;;-141.97;73.22;47707.44;5054805;28;20173;-84
2023/04/11 04:59:03;;;;;;;18.30;10.40;;;;;;;-141.97;73.19;47788.19;5054068;28;20180;-84
2023/04/11 05:01:28;;;;;;;17.40;9.87;;;;;;;-141.97;72.78;47694.00;5052986;28;20610;-85
2023/04/11 05:03:57;;;;;;;16.10;8.87;;;;;;;-141.97;73.13;47803.56;5052842;28;20173;-84
2023/04/11 05:06:28;;;;;;;19.53;10.97;;;;;;;-141.97;72.81;47707.44;5052530;28;20169;-84
2023/04/11 05:08:58;;;;;;;23.63;10.97;;;;;;;-141.97;72.25;47667.06;5054391;28;20662;-84
2023/04/11 05:11:27;;;;;;;16.93;8.40;;;;;;;-141.97;72.76;47674.78;5052167;28;20559;-85
2023/04/11 05:13:53;;;;;;;17.43;9.73;;;;;;;-141.97;72.40;47678.63;5054091;28;20213;-86
2023/04/11 05:16:19;;;;;;;18.97;10.70;;;;;;;-141.97;72.05;47676.69;5053761;28;20253;-84
2023/04/11 05:18:45;;;;;;;24.80;11.93;;;;;;;-141.97;72.06;47724.75;5071051;28;20168;-84
2023/04/11 05:21:12;;;;;;;19.80;11.60;;;;;;;-141.97;72.00;47649.78;5054353;28;20709;-84
2023/04/11 05:23:37;;;;;;;17.80;9.90;;;;;;;-141.97;71.66;47782.41;5070371;28;20329;-83
2023/04/11 05:26:02;;;;;;;15.20;8.07;;;;;;;-141.97;71.31;47609.41;5073663;28;20239;-82
2023/04/11 05:28:30;;;;;;;17.97;9.60;;;;;;;-141.97;71.51;47799.72;5073119;28;20238;-82
2023/04/11 05:30:55;;;;;;;18.63;9.90;;;;;;;-141.97;71.14;47745.88;5073726;28;20243;-84
2023/04/11 05:33:23;;;;;;;14.73;8.17;;;;;;;-141.97;70.94;47705.53;5073304;28;20255;-83
2023/04/11 05:35:49;;;;;;;18.40;10.43;;;;;;;-141.97;70.76;47790.09;5073000;28;20172;-82
2023/04/11 05:38:15;;;;;;;18.73;9.97;;;;;;;-141.97;70.41;47709.38;5071386;28;20224;-82
2023/04/11 05:40:40;;;;;;;19.27;10.57;;;;;;;-141.97;69.94;47476.78;5073238;28;20160;-82
2023/04/11 05:43:07;;;;;;;17.10;8.73;;;;;;;-141.97;69.40;47620.94;5071180;28;20187;-82
2023/04/11 05:45:32;;;;;;;18.53;10.70;;;;;;;-141.97;69.51;47657.47;5070459;28;20176;-82
2023/04/11 05:47:57;;;;;;;17.10;9.10;;;;;;;-141.97;68.65;47694.00;5072307;28;20207;-84
2023/04/11 05:50:23;;;;;;;20.47;10.10;;;;;;;-141.97;68.25;47657.47;5068191;28;20189;-83
2023/04/11 05:52:48;;;;;;;16.40;10.07;;;;;;;-141.97;68.24;47713.22;5064959;28;20192;-84
2023/04/11 05:55:14;;;;;;;13.90;7.57;;;;;;;-141.97;68.75;47669.00;5072320;28;20183;-84
2023/04/11 05:57:40;;;;;;;14.03;8.03;;;;;;;-141.97;68.36;47807.41;5074352;28;20188;-84
2023/04/11 06:00:12;;;;;;;13.93;8.10;;;;;;;-141.97;68.38;47617.09;5058743;28;20188;-82
2023/04/11 06:02:38;;;;;;;12.70;7.27;;;;;;;-141.97;67.90;47634.41;5051789;28;20166;-83
2023/04/11 06:05:04;;;;;;;16.07;8.60;;;;;;;-141.97;68.36;47638.25;5072726;28;20648;-84
2023/04/11 06:07:31;;;;;;;14.43;7.80;;;;;;;-141.97;68.00;47645.94;5071855;28;20197;-86
2023/04/11 06:09:57;;;;;;;14.17;7.63;;;;;;;-141.97;67.56;47595.97;5073006;28;20299;-84
2023/04/11 06:12:22;;;;;;;11.70;6.57;;;;;;;-141.97;67.12;47713.22;5061318;28;20185;-84
2023/04/11 06:14:48;;;;;;;15.47;7.33;;;;;;;-141.97;67.22;47793.94;5053363;28;20271;-84
2023/04/11 06:17:13;;;;;;;11.23;6.77;;;;;;;-141.97;66.54;47576.75;5072830;28;20689;-82
2023/04/11 06:19:38;;;;;;;12.63;7.57;;;;;;;-141.97;67.19;47530.59;5072291;28;20179;-84
2023/04/11 06:22:04;;;;;;;10.33;6.20;;;;;;;-141.97;67.16;47615.19;5071085;28;20165;-83
2023/04/11 06:24:35;;;;;;;11.37;6.93;;;;;;;-141.97;66.74;47824.69;5072540;28;20200;-83
2023/04/11 06:27:00;;;;;;;12.57;7.03;;;;;;;-141.97;66.69;47649.78;5063086;28;20228;-84
2023/04/11 06:29:25;;;;;;;16.33;7.27;;;;;;;-141.97;66.96;47699.75;5061676;28;20687;-84
2023/04/11 06:31:51;;;;;;;15.30;9.73;;;;;;;-141.97;66.40;47707.44;5052773;28;20173;-83
2023/04/11 06:34:16;;;;;;;13.37;7.47;;;;;;;-141.97;66.26;47711.28;5057372;28;20233;-83
2023/04/11 06:36:42;;;;;;;12.43;7.83;;;;;;;-141.97;66.32;47715.13;5068977;28;20213;-84
2023/04/11 06:39:08;;;;;;;20.80;12.87;;;;;;;-141.97;65.84;47659.38;5068753;28;20168;-83
2023/04/11 06:41:35;;;;;;;10.80;6.87;;;;;;;-141.97;65.38;47665.16;5094064;28;20157;-83
2023/04/11 06:44:00;;;;;;;12.70;8.37;;;;;;;-141.97;65.88;47661.31;5079674;28;20224;-84
2023/04/11 06:46:26;;;;;;;13.40;7.93;;;;;;;-141.97;64.63;47651.69;5071587;28;20633;-83
2023/04/11 06:48:51;;;;;;;11.90;6.73;;;;;;;-141.97;64.10;47738.19;5073931;28;20200;-83
2023/04/11 06:51:16;;;;;;;10.77;6.27;;;;;;;-141.97;64.23;47699.75;5085617;28;20161;-82
2023/04/11 06:53:42;;;;;;;8.93;5.10;;;;;;;-141.97;64.18;47622.88;5085911;28;20184;-83
2023/04/11 06:56:10;;;;;;;9.20;4.67;;;;;;;-141.97;63.78;47790.09;5073079;28;20176;-83
2023/04/11 06:58:36;;;;;;;12.87;7.70;;;;;;;-141.97;63.51;47659.38;5071966;28;20851;-83
2023/04/11 07:01:01;;;;;;;15.53;6.57;;;;;;;-141.97;62.91;47655.53;5072086;28;20176;-83
2023/04/11 07:03:27;;;;;;;11.23;6.60;;;;;;;-141.97;62.92;47803.56;5078606;28;20237;-84
2023/04/11 07:05:52;;;;;;;10.77;6.23;;;;;;;-141.97;63.33;47665.16;5052237;28;20165;-83
2023/04/11 07:08:17;;;;;;;13.67;8.27;;;;;;;-141.97;62.68;47672.84;5052424;28;20644;-83
2023/04/11 07:10:43;;;;;;;14.90;9.10;;;;;;;-141.97;62.98;47669.00;5073474;28;20157;-84
2023/04/11 07:13:08;;;;;;;14.87;8.67;;;;;;;-141.97;62.92;47642.09;5072265;28;20670;-84
2023/04/11 07:15:34;;;;;;;14.27;7.90;;;;;;;-141.97;62.12;47561.38;5072146;28;20172;-84
2023/04/11 07:18:00;;;;;;;13.63;7.50;;;;;;;-141.97;62.35;47692.06;5070820;28;20184;-84
2023/04/11 07:20:26;;;;;;;17.40;9.43;;;;;;;-141.97;62.37;47795.88;5070107;28;20230;-84
2023/04/11 07:22:51;;;;;;;16.43;10.30;;;;;;;-141.97;61.56;47676.69;5071775;28;20160;-83
2023/04/11 07:25:21;;;;;;;16.77;10.67;;;;;;;-141.97;61.38;47599.81;5071584;28;20157;-83
2023/04/11 07:27:48;;;;;;;18.27;10.73;;;;;;;-141.97;61.07;47705.53;5070438;28;20287;-84
2023/04/11 07:30:14;;;;;;;18.57;10.57;;;;;;;-141.97;60.93;47695.91;5071716;28;20177;-84
2023/04/11 07:32:39;;;;;;;20.90;11.90;;;;;;;-141.97;60.84;47784.34;5073348;28;20327;-84
2023/04/11 07:35:05;;;;;;;20.90;12.67;;;;;;;-141.97;60.58;47628.63;5070041;28;20287;-85
2023/04/11 07:37:31;;;;;;;20.47;12.13;;;;;;;-141.97;60.27;47496.00;5075297;28;20228;-84
2023/04/11 07:39:59;;;;;;;23.37;12.40;;;;;;;-141.97;60.10;47676.69;5075828;28;20196;-85
2023/04/11 07:42:24;;;;;;;23.27;13.03;;;;;;;-141.97;60.41;47699.75;5071607;28;20271;-84
2023/04/11 07:44:50;;;;;;;17.97;10.30;;;;;;;-141.97;58.93;47765.09;5071535;28;20643;-84
2023/04/11 07:47:15;;;;;;;23.73;14.37;;;;;;;-141.97;59.07;47736.28;5074431;28;20165;-85
2023/04/11 07:49:47;;;;;;;18.47;11.00;;;;;;;-141.97;59.26;47603.66;5075728;28;20172;-86
2023/04/11 07:52:13;;;;;;;22.67;13.60;;;;;;;-141.97;58.87;47684.38;5060538;28;20269;-84
2023/04/11 07:54:38;;;;;;;22.67;13.73;;;;;;;-141.97;58.83;47496.00;5072600;28;20196;-84
2023/04/11 07:57:04;;;;;;;22.57;11.47;;;;;;;-141.97;58.53;47563.28;5071827;28;20168;-84
2023/04/11 07:59:29;;;;;;;19.87;11.83;;;;;;;-141.97;58.21;47653.63;5071239;28;20233;-83
2023/04/11 08:02:03;;;;;;;23.40;12.77;;;;;;;-141.97;58.20;47657.47;5071265;28;20149;-83
2023/04/11 08:04:32;;;;;;;18.73;10.57;;;;;;;-141.97;58.20;47592.13;5071323;28;20176;-84
2023/04/11 08:06:57;;;;;;;21.73;14.37;;;;;;;-141.97;58.82;47630.56;5070181;28;20175;-84
2023/04/11 08:09:23;;;;;;;24.60;12.83;;;;;;;-141.97;58.17;47747.81;5070108;28;20670;-83
2023/04/11 08:11:48;;;;;;;19.80;11.37;;;;;;;-141.97;57.46;47703.59;5072275;28;20185;-83
2023/04/11 08:14:14;;;;;;;20.83;12.67;;;;;;;-141.97;56.96;47740.13;5058870;28;20172;-84
2023/04/11 08:16:39;;;;;;;19.27;12.37;;;;;;;-141.97;57.70;47670.91;5069125;28;20671;-84
2023/04/11 08:19:05;;;;;;;18.43;10.47;;;;;;;-141.97;57.50;47686.31;5071900;28;20176;-83
2023/04/11 08:21:31;;;;;;;28.20;16.90;;;;;;;-141.97;57.37;47695.91;5071231;28;20192;-83
2023/04/11 08:23:56;;;;;;;20.23;12.37;;;;;;;-141.97;56.45;47684.38;5069509;28;20233;-85
2023/04/11 08:26:22;;;;;;;18.47;9.93;;;;;;;-141.97;56.08;47707.44;5070483;28;20169;-84
2023/04/11 08:28:47;;;;;;;19.67;12.07;;;;;;;-141.97;55.75;47711.28;5070203;28;20211;-84
2023/04/11 08:31:13;;;;;;;20.57;10.50;;;;;;;-141.97;55.85;47626.72;5070846;28;20590;-83
2023/04/11 08:33:38;;;;;;;21.03;11.03;;;;;;;-141.97;55.93;47684.38;5070742;28;20168;-84
2023/04/11 08:36:08;;;;;;;19.13;11.13;;;;;;;-141.97;55.90;47642.09;5073215;28;20161;-85
2023/04/11 08:38:34;;;;;;;21.17;13.63;;;;;;;-141.97;56.48;47630.56;5071431;28;20265;-84
2023/04/11 08:40:59;;;;;;;22.13;13.10;;;;;;;-141.97;55.86;47665.16;5069392;28;20213;-84
2023/04/11 08:43:25;;;;;;;27.03;15.77;;;;;;;-141.97;55.83;47638.25;5070860;28;20251;-85
2023/04/11 08:45:51;;;;;;;22.50;12.33;;;;;;;-141.97;55.00;47613.25;5071004;28;20184;-84
2023/04/11 08:48:18;;;;;;;18.23;11.47;;;;;;;-141.97;54.92;47669.00;5072495;28;20196;-85
2023/04/11 08:50:44;;;;;;;23.63;13.17;;;;;;;-141.97;55.36;47620.94;5073477;28;20196;-84
2023/04/11 08:53:10;;;;;;;21.17;12.13;;;;;;;-141.97;54.64;47674.78;5073398;28;20199;-83
2023/04/11 08:55:44;;;;;;;19.90;12.10;;;;;;;-141.97;54.08;47684.38;5073491;28;20165;-83
2023/04/11 08:58:10;;;;;;;19.73;13.00;;;;;;;-141.97;54.90;47599.81;5074859;28;20222;-83
2023/04/11 09:00:35;;;;;;;22.53;12.30;;;;;;;-141.97;54.62;47580.59;5083105;28;20172;-81
2023/04/11 09:03:03;;;;;;;26.93;15.50;;;;;;;-141.97;53.98;47749.72;5084720;28;20274;-82
2023/04/11 09:05:37;;;;;;;26.37;16.40;;;;;;;-141.97;54.22;47686.31;5079241;28;20215;-84
2023/04/11 09:08:14;;;;;;;19.10;11.03;;;;;;;-141.97;54.46;47688.22;5073222;28;20211;-83
2023/04/11 09:10:41;;;;;;;23.97;13.83;;;;;;;-141.97;54.87;47653.63;5073791;28;20230;-83
2023/04/11 09:13:20;;;;;;;22.47;12.27;;;;;;;-141.97;53.82;47647.84;5074211;28;20214;-83
2023/04/11 09:15:46;;;;;;;22.77;14.00;;;;;;;-141.97;54.13;47628.63;5073685;28;20700;-84
2023/04/11 09:18:30;;;;;;;24.93;14.17;;;;;;;-141.97;54.08;47667.06;5073363;28;20169;-83
2023/04/11 09:21:02;;;;;;;20.30;10.60;;;;;;;-141.97;53.97;47667.06;5072122;28;20188;-83
2023/04/11 09:23:28;;;;;;;19.53;11.50;;;;;;;-141.97;54.31;47647.84;5073795;28;20164;-83
2023/04/11 09:25:53;;;;;;;20.30;13.20;;;;;;;-141.97;55.01;47611.34;5073432;28;20535;-83
2023/04/11 09:28:19;;;;;;;16.93;10.57;;;;;;;-141.97;54.14;47644.00;5073651;28;20553;-82
2023/04/11 09:30:50;;;;;;;17.03;9.80;;;;;;;-141.97;54.69;47651.69;5073081;28;20176;-85
2023/04/11 09:33:28;;;;;;;21.10;12.13;;;;;;;-141.97;54.22;47676.69;5072532;28;20171;-83
2023/04/11 09:35:55;;;;;;;18.03;10.53;;;;;;;-141.97;53.90;47780.47;5073739;28;20681;-84
2023/04/11 09:38:31;;;;;;;20.87;12.17;;;;;;;-141.97;53.58;47667.06;5073996;28;20183;-82
2023/04/11 09:40:57;;;;;;;15.07;9.10;;;;;;;-141.97;54.37;47692.06;5074140;28;20172;-83
2023/04/11 09:43:23;;;;;;;21.43;12.20;;;;;;;-141.97;55.21;47665.16;5077109;28;20198;-83
2023/04/11 09:46:06;;;;;;;21.97;13.13;;;;;;;-141.97;54.39;47665.16;5072519;28;20188;-83
2023/04/11 09:48:32;;;;;;;15.93;10.20;;;;;;;-141.97;54.45;47680.53;5073858;28;20573;-84
2023/04/11 09:50:59;;;;;;;16.97;10.53;;;;;;;-141.97;54.71;47634.41;5073591;28;20171;-83
2023/04/11 09:53:26;;;;;;;16.70;10.23;;;;;;;-141.97;54.57;47597.88;5073987;28;20160;-83
2023/04/11 09:55:51;;;;;;;22.93;12.63;;;;;;;-141.97;54.10;47676.69;5075175;28;20605;-84
2023/04/11 09:58:19;;;;;;;22.10;12.23;;;;;;;-141.97;54.09;47732.44;5072326;28;20179;-83
2023/04/11 10:00:47;;;;;;;21.27;12.37;;;;;;;-141.97;54.77;47582.50;5073752;28;20275;-83
2023/04/11 10:03:12;;;;;;;24.17;13.30;;;;;;;-141.97;53.34;47695.91;5073623;28;20251;-83
2023/04/11 10:05:38;;;;;;;15.63;10.57;;;;;;;-141.97;51.67;47699.75;5072571;28;20217;-84
2023/04/11 10:08:07;;;;;;;20.83;11.73;;;;;;;-141.97;51.30;47699.75;5073809;28;20284;-83
2023/04/11 10:10:34;;;;;;;24.23;14.80;;;;;;;-141.97;49.99;47688.22;5072982;28;20208;-83
2023/04/11 10:13:00;;;;;;;21.10;13.83;;;;;;;-141.97;49.51;47680.53;5073554;28;20534;-83
2023/04/11 10:15:25;;;;;;;17.23;11.00;;;;;;;-141.97;48.84;47597.88;5072260;28;20202;-84
2023/04/11 10:18:11;;;;;;;19.10;11.80;;;;;;;-141.97;48.78;47615.19;5072395;28;20165;-83
2023/04/11 10:20:43;;;;;;;14.37;7.63;;;;;;;-141.97;48.83;47628.63;5071502;28;20546;-85
2023/04/11 10:23:10;;;;;;;14.97;9.67;;;;;;;-141.97;48.83;47686.31;5072677;28;20171;-83
2023/04/11 10:25:49;;;;;;;21.80;12.60;;;;;;;-141.97;46.94;47684.38;5073685;28;20172;-84
2023/04/11 10:28:32;;;;;;;14.43;8.87;;;;;;;-141.97;45.62;47801.63;5068070;28;20288;-84
2023/04/11 10:30:59;;;;;;;17.57;11.13;;;;;;;-141.97;46.46;47649.78;5075634;28;20290;-84
2023/04/11 10:33:26;;;;;;;20.37;12.63;;;;;;;-141.97;46.25;47661.31;5074836;28;20200;-85
2023/04/11 10:36:05;;;;;;;21.33;12.27;;;;;;;-141.97;46.54;47676.69;5072949;28;20681;-83
2023/04/11 10:38:42;;;;;;;24.00;13.97;;;;;;;-141.97;45.14;47653.63;5070874;28;20262;-84
2023/04/11 10:41:16;;;;;;;36.03;17.10;;;;;;;-141.97;43.91;47665.16;5072042;28;20195;-84
2023/04/11 10:43:42;;;;;;;20.50;11.73;;;;;;;-141.97;44.45;47601.72;5057170;28;20209;-85
2023/04/11 10:46:22;;;;;;;33.83;21.63;;;;;;;-141.97;43.54;47680.53;5054931;28;20165;-85
2023/04/11 10:49:00;;;;;;;19.40;12.43;;;;;;;-141.97;43.14;47619.03;5051984;28;20217;-84
2023/04/11 10:51:27;;;;;;;21.53;12.83;;;;;;;-141.97;42.89;47634.41;5050918;28;20165;-85
2023/04/11 10:53:54;;;;;;;18.37;11.10;;;;;;;-141.97;43.60;47590.19;5084232;28;20637;-84
2023/04/11 10:56:41;;;;;;;18.60;10.83;;;;;;;-141.97;43.29;47644.00;5059085;28;20174;-83
2023/04/11 10:59:30;;;;;;;15.70;9.57;;;;;;;-141.97;43.64;47651.69;5053449;28;20230;-83
2023/04/11 11:01:56;;;;;;;13.87;9.20;;;;;;;-141.97;43.16;47644.00;5072667;28;20259;-84
2023/04/11 11:04:32;;;;;;;17.00;9.73;;;;;;;-141.97;43.03;47636.31;5074434;28;20157;-85